createdAt,value
2019-02-21T00:01:15.814Z,19.20
2019-02-21T00:03:50.331Z,21.82
2019-02-21T00:06:24.838Z,19.55
2019-02-21T00:08:59.587Z,20.72
2019-02-21T00:14:07.819Z,21.57
2019-02-21T00:16:42.318Z,20.80
2019-02-21T00:19:16.647Z,21.87
2019-02-21T00:24:25.151Z,20.70
2019-02-21T00:26:59.675Z,18.87
2019-02-21T00:29:34.588Z,22.50
2019-02-21T00:32:09.322Z,20.17
2019-02-21T00:34:43.783Z,22.35
2019-02-21T00:37:18.060Z,23.25
2019-02-21T00:39:52.554Z,21.85
2019-02-21T00:42:27.832Z,23.10
2019-02-21T00:45:02.530Z,22.73
2019-02-21T00:47:36.843Z,22.05
2019-02-21T00:50:11.536Z,24.57
2019-02-21T00:52:45.927Z,23.18
2019-02-21T00:55:20.514Z,23.10
2019-02-21T00:57:54.980Z,22.77
2019-02-21T01:00:29.649Z,22.67
2019-02-21T01:05:38.320Z,24.37
2019-02-21T01:08:12.676Z,23.90
2019-02-21T01:10:47.070Z,25.27
2019-02-21T01:13:21.511Z,24.98
2019-02-21T01:15:55.883Z,23.40
2019-02-21T01:18:30.443Z,24.32
2019-02-21T01:21:05.323Z,21.77
2019-02-21T01:23:39.677Z,24.63
2019-02-21T01:26:14.556Z,23.92
2019-02-21T01:28:48.987Z,23.87
2019-02-21T01:31:23.326Z,24.23
2019-02-21T01:33:57.787Z,23.50
2019-02-21T01:36:32.183Z,22.82
2019-02-21T01:39:07.903Z,21.77
2019-02-21T01:41:43.043Z,22.95
2019-02-21T01:44:17.848Z,23.12
2019-02-21T01:46:52.468Z,22.70
2019-02-21T01:49:26.784Z,20.55
2019-02-21T01:52:01.631Z,21.30
2019-02-21T01:54:36.330Z,21.20
2019-02-21T01:57:10.652Z,21.77
2019-02-21T02:02:18.590Z,21.85
2019-02-21T02:04:53.325Z,21.02
2019-02-21T02:07:28.170Z,23.87
2019-02-21T02:11:47.686Z,21.77
2019-02-21T02:14:22.153Z,22.07
2019-02-21T02:16:58.640Z,23.20
2019-02-21T02:19:32.895Z,22.42
2019-02-21T02:22:07.325Z,22.90
2019-02-21T02:24:41.805Z,21.93
2019-02-21T02:27:16.421Z,20.25
2019-02-21T02:29:50.783Z,21.45
2019-02-21T02:34:59.905Z,22.25
2019-02-21T02:37:34.813Z,22.13
2019-02-21T02:40:09.529Z,22.62
2019-02-21T02:42:43.797Z,22.70
2019-02-21T02:45:18.324Z,22.62
2019-02-21T02:47:52.721Z,23.22
2019-02-21T02:53:00.695Z,22.87
2019-02-21T02:58:08.533Z,23.30
2019-02-21T03:00:43.005Z,22.95
2019-02-21T03:03:17.574Z,22.75
2019-02-21T03:05:51.976Z,22.85
2019-02-21T03:08:26.320Z,24.07
2019-02-21T03:11:00.884Z,22.42
2019-02-21T03:13:36.509Z,23.57
2019-02-21T03:16:10.818Z,23.07
2019-02-21T03:18:45.041Z,23.02
2019-02-21T03:21:19.524Z,22.55
2019-02-21T03:23:54.312Z,22.07
2019-02-21T03:26:28.663Z,23.15
2019-02-21T03:29:02.977Z,21.90
2019-02-21T03:31:53.635Z,24.02
2019-02-21T03:34:13.826Z,25.82
2019-02-21T03:36:48.085Z,25.72
2019-02-21T03:39:22.665Z,26.23
2019-02-21T03:41:57.668Z,22.93
2019-02-21T03:47:05.947Z,22.05
2019-02-21T03:49:40.595Z,24.10
2019-02-21T03:57:22.949Z,23.18
2019-02-21T03:59:57.546Z,24.35
2019-02-21T04:02:32.318Z,23.30
2019-02-21T04:05:07.021Z,23.27
2019-02-21T04:07:41.600Z,23.70
2019-02-21T04:10:16.126Z,23.12
2019-02-21T04:12:50.625Z,23.87
2019-02-21T04:15:25.329Z,23.22
2019-02-21T04:17:59.933Z,21.70
2019-02-21T04:20:34.524Z,23.12
2019-02-21T04:23:08.795Z,22.32
2019-02-21T04:25:43.105Z,21.95
2019-02-21T04:28:17.612Z,23.35
2019-02-21T04:33:25.786Z,21.75
2019-02-21T04:36:00.325Z,22.60
2019-02-21T04:38:34.864Z,22.62
2019-02-21T04:41:09.333Z,23.52
2019-02-21T04:43:43.863Z,22.52
2019-02-21T04:46:18.309Z,20.90
2019-02-21T04:48:52.814Z,21.10
2019-02-21T04:51:27.052Z,21.07
2019-02-21T04:54:01.675Z,21.15
2019-02-21T04:56:35.967Z,21.30
2019-02-21T04:59:10.598Z,21.20
2019-02-21T05:01:45.050Z,20.30
2019-02-21T05:04:19.671Z,22.25
2019-02-21T05:09:27.955Z,21.57
2019-02-21T05:12:02.646Z,21.60
2019-02-21T05:17:10.639Z,20.70
2019-02-21T05:19:45.044Z,19.60
2019-02-21T05:22:19.642Z,20.37
2019-02-21T05:24:53.962Z,20.80
2019-02-21T05:27:32.694Z,19.37
2019-02-21T05:33:07.560Z,19.75
2019-02-21T05:35:55.468Z,18.50
2019-02-21T05:38:49.874Z,18.75
2019-02-21T05:41:44.537Z,18.12
2019-02-21T05:44:25.197Z,18.02
2019-02-21T05:47:12.837Z,18.48
2019-02-21T05:50:06.832Z,18.05
2019-02-21T05:52:51.010Z,18.95
2019-02-21T05:55:45.213Z,20.97
2019-02-21T05:58:38.109Z,18.50
2019-02-21T06:01:31.132Z,19.40
2019-02-21T06:04:23.979Z,19.32
2019-02-21T06:07:09.855Z,19.48
2019-02-21T06:09:50.780Z,19.85
2019-02-21T06:12:44.862Z,20.50
2019-02-21T06:15:44.755Z,20.80
2019-02-21T06:18:37.127Z,21.27
2019-02-21T06:21:39.571Z,21.25
2019-02-21T06:24:29.329Z,21.07
2019-02-21T06:27:21.314Z,20.85
2019-02-21T06:29:59.713Z,19.80
2019-02-21T06:32:34.334Z,20.25
2019-02-21T06:35:09.331Z,20.70
2019-02-21T06:37:43.632Z,21.05
2019-02-21T06:42:52.027Z,23.87
2019-02-21T06:45:26.871Z,22.30
2019-02-21T06:48:01.451Z,21.20
2019-02-21T06:50:35.980Z,21.15
2019-02-21T06:53:10.568Z,21.02
2019-02-21T06:55:45.169Z,21.70
2019-02-21T06:58:19.646Z,21.17
2019-02-21T07:00:54.147Z,21.85
2019-02-21T07:03:29.117Z,21.57
2019-02-21T07:06:05.069Z,20.48
2019-02-21T07:08:40.316Z,21.20
2019-02-21T07:11:15.050Z,21.95
2019-02-21T07:13:49.677Z,20.57
2019-02-21T07:16:24.109Z,20.60
2019-02-21T07:18:58.547Z,19.95
2019-02-21T07:21:33.132Z,18.42
2019-02-21T07:24:07.736Z,19.45
2019-02-21T07:26:42.811Z,18.37
2019-02-21T07:29:17.556Z,18.60
2019-02-21T07:31:52.109Z,17.25
2019-02-21T07:34:26.811Z,17.82
2019-02-21T07:37:01.654Z,17.87
2019-02-21T07:39:37.454Z,17.80
2019-02-21T07:42:12.317Z,17.52
2019-02-21T07:44:47.108Z,16.97
2019-02-21T07:47:22.329Z,17.35
2019-02-21T07:49:56.986Z,17.32
2019-02-21T07:52:31.334Z,17.17
2019-02-21T07:55:06.136Z,15.95
2019-02-21T07:57:40.836Z,17.25
2019-02-21T08:00:15.490Z,15.85
2019-02-21T08:02:51.855Z,16.45
2019-02-21T08:05:26.656Z,14.90
2019-02-21T08:10:37.521Z,16.02
2019-02-21T08:13:12.506Z,15.45
2019-02-21T08:15:47.745Z,15.60
2019-02-21T08:18:22.830Z,15.65
2019-02-21T08:20:58.026Z,15.98
2019-02-21T08:23:32.663Z,16.73
2019-02-21T08:31:18.710Z,16.02
2019-02-21T08:34:04.289Z,15.85
2019-02-21T08:39:14.325Z,15.60
2019-02-21T08:41:49.199Z,13.98
2019-02-21T08:44:24.637Z,14.38
2019-02-21T08:52:07.311Z,14.95
2019-02-21T08:54:41.769Z,15.43
2019-02-21T08:57:19.461Z,14.85
2019-02-21T08:59:53.147Z,16.17
2019-02-21T09:02:28.518Z,14.68
2019-02-21T09:07:37.139Z,14.35
2019-02-21T09:10:12.653Z,14.70
2019-02-21T09:15:22.832Z,14.73
2019-02-21T09:17:57.435Z,13.68
2019-02-21T09:20:32.312Z,13.98
2019-02-21T09:23:06.998Z,13.98
2019-02-21T09:25:41.664Z,14.23
2019-02-21T09:28:16.315Z,13.15
2019-02-21T09:30:51.745Z,13.05
2019-02-21T09:33:26.340Z,13.18
2019-02-21T09:36:00.839Z,12.82
2019-02-21T09:38:35.565Z,13.35
2019-02-21T09:43:45.118Z,13.55
2019-02-21T09:46:19.609Z,13.05
2019-02-21T09:48:54.420Z,13.00
2019-02-21T09:51:29.004Z,13.48
2019-02-21T09:54:03.583Z,13.20
2019-02-21T09:56:38.313Z,13.55
2019-02-21T09:59:12.834Z,13.40
2019-02-21T10:01:47.390Z,13.50
2019-02-21T10:04:31.583Z,13.22
2019-02-21T10:06:58.484Z,13.70
2019-02-21T10:09:33.306Z,13.95
2019-02-21T10:12:07.604Z,13.30
2019-02-21T10:14:43.142Z,13.53
2019-02-21T10:17:17.776Z,12.68
2019-02-21T10:19:52.110Z,13.10
2019-02-21T10:22:26.827Z,12.30
2019-02-21T10:25:01.524Z,13.10
2019-02-21T10:30:14.509Z,12.23
2019-02-21T10:32:48.902Z,12.85
2019-02-21T10:35:23.308Z,13.03
2019-02-21T10:37:57.801Z,12.30
2019-02-21T10:40:33.432Z,12.85
2019-02-21T10:45:47.696Z,13.90
2019-02-21T10:48:18.789Z,13.30
2019-02-21T10:50:55.740Z,12.58
2019-02-21T10:53:30.313Z,13.30
2019-02-21T10:56:04.796Z,13.30
2019-02-21T10:58:39.311Z,13.20
2019-02-21T11:01:14.084Z,13.93
2019-02-21T11:03:48.792Z,13.40
2019-02-21T11:06:23.581Z,12.65
2019-02-21T11:08:58.293Z,12.80
2019-02-21T11:11:33.070Z,12.75
2019-02-21T11:14:23.819Z,12.85
2019-02-21T11:16:58.307Z,13.00
2019-02-21T11:19:32.820Z,13.15
2019-02-21T11:22:07.525Z,12.43
2019-02-21T11:27:16.308Z,13.80
2019-02-21T11:29:51.092Z,14.28
2019-02-21T11:32:26.637Z,14.15
2019-02-21T11:37:43.316Z,13.83
2019-02-21T11:40:15.834Z,13.90
2019-02-21T11:43:09.655Z,13.70
2019-02-21T11:45:53.421Z,14.38
2019-02-21T11:48:20.799Z,13.93
2019-02-21T11:50:55.550Z,12.75
2019-02-21T11:53:30.150Z,13.03
2019-02-21T11:56:04.576Z,12.80
2019-02-21T12:01:13.313Z,12.58
2019-02-21T12:03:47.721Z,11.60
2019-02-21T12:06:22.421Z,11.83
2019-02-21T12:08:57.017Z,11.53
2019-02-21T12:11:31.521Z,10.88
2019-02-21T12:14:06.526Z,10.60
2019-02-21T12:19:15.318Z,11.12
2019-02-21T12:21:58.623Z,11.57
2019-02-21T12:24:26.700Z,10.50
2019-02-21T12:29:35.028Z,11.55
2019-02-21T12:32:09.870Z,11.38
2019-02-21T12:34:44.559Z,9.65
2019-02-21T12:39:53.073Z,10.50
2019-02-21T12:42:27.596Z,11.12
2019-02-21T12:47:36.826Z,13.88
2019-02-21T12:50:11.807Z,10.93
2019-02-21T12:52:46.330Z,11.38
2019-02-21T12:58:19.022Z,11.73
2019-02-21T13:00:54.411Z,12.13
2019-02-21T13:03:30.017Z,11.80
2019-02-21T13:06:04.534Z,11.97
2019-02-21T13:08:38.982Z,12.70
2019-02-21T13:11:13.501Z,11.50
2019-02-21T13:13:48.188Z,12.37
2019-02-21T13:16:24.089Z,13.43
2019-02-21T13:18:58.831Z,12.58
2019-02-21T13:21:33.512Z,12.95
2019-02-21T13:24:07.939Z,11.93
2019-02-21T13:26:42.448Z,13.10
2019-02-21T13:29:17.312Z,11.30
2019-02-21T13:31:51.827Z,12.40
2019-02-21T13:34:27.452Z,12.63
2019-02-21T13:37:01.970Z,11.73
2019-02-21T13:40:26.851Z,12.00
2019-02-21T13:43:01.553Z,12.00
2019-02-21T13:48:10.009Z,13.40
2019-02-21T13:50:44.782Z,14.45
2019-02-21T13:53:19.531Z,14.38
2019-02-21T13:55:54.341Z,13.10
2019-02-21T13:58:28.861Z,12.70
2019-02-21T14:01:03.821Z,11.40
2019-02-21T14:03:38.912Z,11.28
2019-02-21T14:06:13.449Z,11.80
2019-02-21T14:08:48.062Z,12.65
2019-02-21T14:11:22.807Z,12.58
2019-02-21T14:13:57.614Z,15.28
2019-02-21T14:16:32.141Z,15.75
2019-02-21T14:19:06.871Z,16.62
2019-02-21T14:21:43.595Z,16.17
2019-02-21T14:24:18.442Z,17.02
2019-02-21T14:26:52.809Z,16.30
2019-02-21T14:29:38.432Z,16.45
2019-02-21T14:32:04.023Z,16.07
2019-02-21T14:34:38.912Z,15.50
2019-02-21T14:37:13.543Z,15.23
2019-02-21T14:42:22.442Z,15.78
2019-02-21T14:44:56.847Z,16.17
2019-02-21T14:47:33.527Z,16.32
2019-02-21T14:52:43.342Z,14.47
2019-02-21T14:55:18.608Z,15.55
2019-02-21T15:00:27.355Z,13.75
2019-02-21T15:03:02.707Z,13.65
2019-02-21T15:05:38.776Z,12.93
2019-02-21T15:08:16.890Z,13.50
2019-02-21T15:10:52.800Z,12.30
2019-02-21T15:13:27.953Z,13.03
2019-02-21T15:16:02.586Z,12.90
2019-02-21T15:23:48.532Z,12.07
2019-02-21T15:26:23.028Z,12.68
2019-02-21T15:28:59.981Z,12.28
2019-02-21T15:31:34.562Z,13.32
2019-02-21T15:36:43.473Z,13.62
2019-02-21T15:39:18.303Z,12.53
2019-02-21T15:41:53.098Z,14.78
2019-02-21T15:44:27.633Z,13.45
2019-02-21T15:49:36.893Z,12.03
2019-02-21T15:52:21.926Z,11.00
2019-02-21T15:54:48.107Z,12.55
2019-02-21T15:57:22.833Z,12.40
2019-02-21T15:59:58.573Z,12.45
2019-02-21T16:05:08.102Z,13.58
2019-02-21T16:07:43.315Z,14.47
2019-02-21T16:10:22.536Z,14.18
2019-02-21T16:15:32.074Z,14.85
2019-02-21T16:18:07.335Z,14.03
2019-02-21T16:20:42.061Z,14.10
2019-02-21T16:23:19.280Z,14.45
2019-02-21T16:25:53.706Z,15.00
2019-02-21T16:28:28.310Z,15.88
2019-02-21T16:31:02.890Z,16.85
2019-02-21T16:33:38.535Z,15.25
2019-02-21T16:38:47.065Z,14.98
2019-02-21T16:41:22.065Z,14.87
2019-02-21T16:43:57.140Z,15.88
2019-02-21T16:46:32.122Z,13.20
2019-02-21T16:49:07.456Z,14.13
2019-02-21T16:51:41.773Z,14.98
2019-02-21T16:54:16.376Z,15.68
2019-02-21T16:56:51.047Z,14.75
2019-02-21T16:59:25.896Z,15.08
2019-02-21T17:02:00.532Z,15.50
2019-02-21T17:04:35.568Z,16.55
2019-02-21T17:09:46.065Z,15.68
2019-02-21T17:12:20.471Z,14.95
2019-02-21T17:14:55.307Z,15.98
2019-02-21T17:17:30.163Z,16.07
2019-02-21T17:20:07.110Z,15.80
2019-02-21T17:22:41.643Z,15.25
2019-02-21T17:25:16.308Z,17.55
2019-02-21T17:27:51.067Z,16.30
2019-02-21T17:30:25.610Z,16.67
2019-02-21T17:40:42.778Z,17.73
2019-02-21T17:43:17.454Z,17.87
2019-02-21T17:45:52.122Z,17.50
2019-02-21T17:48:26.660Z,17.40
2019-02-21T17:53:35.324Z,16.50
2019-02-21T17:56:10.126Z,20.40
2019-02-21T17:58:44.693Z,17.70
2019-02-21T18:03:53.165Z,18.20
2019-02-21T18:06:27.502Z,17.67
2019-02-21T18:09:03.669Z,18.15
2019-02-21T18:11:40.187Z,18.25
2019-02-21T18:14:18.125Z,19.30
2019-02-21T18:16:52.555Z,18.80
2019-02-21T18:19:28.123Z,17.85
2019-02-21T18:22:02.741Z,17.70
2019-02-21T18:24:37.838Z,18.40
2019-02-21T18:27:12.526Z,19.02
2019-02-21T18:29:47.615Z,19.37
2019-02-21T18:37:30.104Z,19.85
2019-02-21T18:40:16.625Z,20.57
2019-02-21T18:42:43.672Z,20.97
2019-02-21T18:45:18.574Z,23.30
2019-02-21T18:50:37.662Z,21.30
2019-02-21T18:55:38.522Z,22.52
2019-02-21T18:58:14.306Z,29.10
2019-02-21T19:00:49.462Z,35.10
2019-02-21T19:03:30.304Z,44.60
2019-02-21T19:06:05.089Z,31.17
2019-02-21T19:08:39.775Z,32.50
2019-02-21T19:11:14.507Z,28.87
2019-02-21T19:13:49.008Z,31.50
2019-02-21T19:16:23.494Z,29.72
2019-02-21T19:18:58.320Z,31.12
2019-02-21T19:21:33.045Z,29.67
2019-02-21T19:24:08.040Z,29.12
2019-02-21T19:26:42.842Z,27.40
2019-02-21T19:29:17.605Z,24.98
2019-02-21T19:31:52.424Z,23.83
2019-02-21T19:34:27.083Z,24.15
2019-02-21T19:37:02.316Z,23.00
2019-02-21T19:39:37.164Z,21.82
2019-02-21T19:42:11.847Z,22.58
2019-02-21T19:44:46.336Z,20.88
2019-02-21T19:47:20.824Z,21.60
2019-02-21T19:49:55.873Z,22.60
2019-02-21T19:52:30.750Z,22.02
2019-02-21T19:55:05.585Z,22.27
2019-02-21T20:00:17.498Z,22.95
2019-02-21T20:05:27.444Z,22.48
2019-02-21T20:08:08.746Z,20.85
2019-02-21T20:10:39.064Z,21.52
2019-02-21T20:13:14.912Z,21.87
2019-02-21T20:15:49.893Z,22.87
2019-02-21T20:18:24.706Z,21.73
2019-02-21T20:20:59.542Z,21.50
2019-02-21T20:23:34.319Z,20.82
2019-02-21T20:26:17.909Z,19.60
2019-02-21T20:28:45.834Z,19.82
2019-02-21T20:31:20.568Z,20.60
2019-02-21T20:39:04.546Z,21.60
2019-02-21T20:41:41.149Z,22.15
2019-02-21T20:44:16.466Z,21.95
2019-02-21T20:46:51.601Z,21.75
2019-02-21T20:49:26.319Z,20.52
2019-02-21T20:52:01.131Z,21.68
2019-02-21T20:54:35.804Z,21.42
2019-02-21T20:57:10.485Z,21.00
2019-02-21T20:59:45.158Z,20.75
2019-02-21T21:02:19.738Z,20.20
2019-02-21T21:04:54.694Z,20.72
2019-02-21T21:07:29.327Z,20.62
2019-02-21T21:10:08.735Z,22.07
2019-02-21T21:12:43.723Z,21.73
2019-02-21T21:15:18.590Z,20.57
2019-02-21T21:25:35.307Z,20.60
2019-02-21T21:28:10.074Z,19.48
2019-02-21T21:30:45.179Z,19.55
2019-02-21T21:33:20.168Z,18.73
2019-02-21T21:35:54.841Z,21.50
2019-02-21T21:38:29.675Z,20.37
2019-02-21T21:41:04.584Z,20.20
2019-02-21T21:43:39.324Z,20.85
2019-02-21T21:46:14.154Z,19.98
2019-02-21T21:48:48.886Z,20.00
2019-02-21T21:51:23.647Z,19.62
2019-02-21T21:59:05.862Z,20.60
2019-02-21T22:01:40.517Z,20.52
2019-02-21T22:04:16.317Z,20.40
2019-02-21T22:06:50.818Z,19.95
2019-02-21T22:09:25.497Z,20.43
2019-02-21T22:12:00.143Z,21.05
2019-02-21T22:14:34.610Z,20.37
2019-02-21T22:17:09.073Z,20.43
2019-02-21T22:19:43.826Z,19.92
2019-02-21T22:22:18.584Z,22.32
2019-02-21T22:24:53.164Z,20.55
2019-02-21T22:27:27.825Z,20.02
2019-02-21T22:30:02.369Z,23.35
2019-02-21T22:32:36.833Z,22.10
2019-02-21T22:35:11.520Z,20.92
2019-02-21T22:37:46.215Z,21.37
2019-02-21T22:40:21.132Z,21.70
2019-02-21T22:42:55.987Z,22.82
2019-02-21T22:45:31.616Z,22.85
2019-02-21T22:50:55.023Z,21.48
2019-02-21T22:53:29.654Z,22.13
2019-02-21T22:56:04.469Z,23.10
2019-02-21T22:58:45.114Z,23.02
2019-02-21T23:01:39.138Z,21.87
2019-02-21T23:04:51.039Z,20.65
2019-02-21T23:07:49.480Z,20.57
2019-02-21T23:10:24.190Z,21.15
2019-02-21T23:12:58.722Z,20.15
2019-02-21T23:15:33.105Z,20.60
2019-02-21T23:18:08.090Z,20.05
2019-02-21T23:20:43.319Z,19.95
2019-02-21T23:23:17.856Z,22.35
2019-02-21T23:25:52.309Z,21.27
2019-02-21T23:28:26.812Z,22.20
2019-02-21T23:31:01.521Z,20.97
2019-02-21T23:33:39.003Z,21.93
2019-02-21T23:36:14.076Z,21.68
2019-02-21T23:38:48.527Z,20.92
2019-02-21T23:41:23.160Z,21.97
2019-02-21T23:43:57.557Z,22.75
2019-02-21T23:46:32.153Z,22.40
2019-02-21T23:49:06.823Z,21.57
2019-02-21T23:51:41.438Z,20.92
2019-02-21T23:54:16.045Z,21.02
2019-02-21T23:56:50.633Z,20.65
2019-02-21T23:59:24.889Z,21.07
